sensor_id;sensor_type;location;lat;lon;timestamp;P1;durP1;ratioP1;P2;durP2;ratioP2
7158;SDS011;63175;52.374;13.132;2023-02-17T00:02:01;25.37;;;17.40;;
7158;SDS011;63175;52.374;13.132;2023-02-17T00:04:30;22.30;;;16.07;;
7158;SDS011;63175;52.374;13.132;2023-02-17T00:06:58;22.50;;;15.63;;
7158;SDS011;63175;52.374;13.132;2023-02-17T00:09:25;26.90;;;19.03;;
7158;SDS011;63175;52.374;13.132;2023-02-17T00:11:51;27.53;;;17.10;;
7158;SDS011;63175;52.374;13.132;2023-02-17T00:14:18;23.33;;;16.43;;
7158;SDS011;63175;52.374;13.132;2023-02-17T00:16:45;29.03;;;20.37;;
7158;SDS011;63175;52.374;13.132;2023-02-17T00:19:12;25.90;;;18.47;;
7158;SDS011;63175;52.374;13.132;2023-02-17T00:21:53;23.27;;;16.60;;
7158;SDS011;63175;52.374;13.132;2023-02-17T00:24:24;28.13;;;19.50;;
7158;SDS011;63175;52.374;13.132;2023-02-17T00:26:52;27.13;;;18.50;;
7158;SDS011;63175;52.374;13.132;2023-02-17T00:29:19;22.60;;;16.80;;
7158;SDS011;63175;52.374;13.132;2023-02-17T00:31:46;27.77;;;18.30;;
7158;SDS011;63175;52.374;13.132;2023-02-17T00:34:15;25.40;;;17.70;;
7158;SDS011;63175;52.374;13.132;2023-02-17T00:36:42;26.90;;;19.10;;
7158;SDS011;63175;52.374;13.132;2023-02-17T00:39:11;26.13;;;17.53;;
7158;SDS011;63175;52.374;13.132;2023-02-17T00:41:39;26.23;;;19.30;;
7158;SDS011;63175;52.374;13.132;2023-02-17T00:44:05;26.37;;;19.47;;
7158;SDS011;63175;52.374;13.132;2023-02-17T00:46:32;28.70;;;18.13;;
7158;SDS011;63175;52.374;13.132;2023-02-17T00:48:59;26.47;;;18.87;;
7158;SDS011;63175;52.374;13.132;2023-02-17T00:51:26;28.30;;;18.20;;
7158;SDS011;63175;52.374;13.132;2023-02-17T00:53:53;26.60;;;19.47;;
7158;SDS011;63175;52.374;13.132;2023-02-17T00:56:21;21.90;;;16.93;;
7158;SDS011;63175;52.374;13.132;2023-02-17T00:58:48;26.70;;;19.33;;
7158;SDS011;63175;52.374;13.132;2023-02-17T01:01:15;28.80;;;18.07;;
7158;SDS011;63175;52.374;13.132;2023-02-17T01:03:41;29.70;;;18.37;;
7158;SDS011;63175;52.374;13.132;2023-02-17T01:06:09;28.27;;;20.27;;
7158;SDS011;63175;52.374;13.132;2023-02-17T01:08:43;24.73;;;18.00;;
7158;SDS011;63175;52.374;13.132;2023-02-17T01:11:15;27.53;;;18.83;;
7158;SDS011;63175;52.374;13.132;2023-02-17T01:13:44;28.00;;;19.93;;
7158;SDS011;63175;52.374;13.132;2023-02-17T01:16:15;31.23;;;19.97;;
7158;SDS011;63175;52.374;13.132;2023-02-17T01:18:42;28.70;;;18.43;;
7158;SDS011;63175;52.374;13.132;2023-02-17T01:21:14;23.33;;;18.00;;
7158;SDS011;63175;52.374;13.132;2023-02-17T01:23:41;25.70;;;18.93;;
7158;SDS011;63175;52.374;13.132;2023-02-17T01:26:11;29.10;;;18.80;;
7158;SDS011;63175;52.374;13.132;2023-02-17T01:28:39;24.13;;;17.90;;
7158;SDS011;63175;52.374;13.132;2023-02-17T01:31:07;24.10;;;17.60;;
7158;SDS011;63175;52.374;13.132;2023-02-17T01:33:35;29.00;;;19.57;;
7158;SDS011;63175;52.374;13.132;2023-02-17T01:36:02;25.97;;;18.37;;
7158;SDS011;63175;52.374;13.132;2023-02-17T01:38:30;29.20;;;18.33;;
7158;SDS011;63175;52.374;13.132;2023-02-17T01:40:57;27.47;;;19.20;;
7158;SDS011;63175;52.374;13.132;2023-02-17T01:43:24;22.87;;;17.67;;
7158;SDS011;63175;52.374;13.132;2023-02-17T01:45:51;26.13;;;17.60;;
7158;SDS011;63175;52.374;13.132;2023-02-17T01:48:21;22.20;;;16.60;;
7158;SDS011;63175;52.374;13.132;2023-02-17T01:50:52;20.47;;;15.40;;
7158;SDS011;63175;52.374;13.132;2023-02-17T01:53:22;21.77;;;17.40;;
7158;SDS011;63175;52.374;13.132;2023-02-17T01:55:54;27.07;;;18.27;;
7158;SDS011;63175;52.374;13.132;2023-02-17T01:58:22;26.43;;;17.00;;
7158;SDS011;63175;52.374;13.132;2023-02-17T02:00:51;23.53;;;17.10;;
7158;SDS011;63175;52.374;13.132;2023-02-17T02:03:22;24.90;;;16.40;;
7158;SDS011;63175;52.374;13.132;2023-02-17T02:05:49;28.03;;;19.23;;
7158;SDS011;63175;52.374;13.132;2023-02-17T02:08:16;28.73;;;18.70;;
7158;SDS011;63175;52.374;13.132;2023-02-17T02:10:43;27.50;;;16.93;;
7158;SDS011;63175;52.374;13.132;2023-02-17T02:13:10;25.63;;;18.37;;
7158;SDS011;63175;52.374;13.132;2023-02-17T02:15:39;24.63;;;18.70;;
7158;SDS011;63175;52.374;13.132;2023-02-17T02:18:18;23.40;;;17.60;;
7158;SDS011;63175;52.374;13.132;2023-02-17T02:24:08;23.83;;;17.83;;
7158;SDS011;63175;52.374;13.132;2023-02-17T02:27:08;25.90;;;18.53;;
7158;SDS011;63175;52.374;13.132;2023-02-17T02:30:17;24.57;;;16.67;;
7158;SDS011;63175;52.374;13.132;2023-02-17T02:33:12;24.13;;;17.73;;
7158;SDS011;63175;52.374;13.132;2023-02-17T02:35:49;27.50;;;18.40;;
7158;SDS011;63175;52.374;13.132;2023-02-17T02:38:21;23.50;;;16.70;;
7158;SDS011;63175;52.374;13.132;2023-02-17T02:40:53;27.43;;;19.67;;
7158;SDS011;63175;52.374;13.132;2023-02-17T02:43:27;26.43;;;18.10;;
7158;SDS011;63175;52.374;13.132;2023-02-17T02:45:55;29.30;;;17.70;;
7158;SDS011;63175;52.374;13.132;2023-02-17T02:48:24;31.47;;;18.70;;
7158;SDS011;63175;52.374;13.132;2023-02-17T02:50:54;24.27;;;17.13;;
7158;SDS011;63175;52.374;13.132;2023-02-17T02:53:41;24.30;;;18.20;;
7158;SDS011;63175;52.374;13.132;2023-02-17T02:56:16;29.47;;;19.77;;
7158;SDS011;63175;52.374;13.132;2023-02-17T02:58:53;28.43;;;18.80;;
7158;SDS011;63175;52.374;13.132;2023-02-17T03:01:26;25.77;;;17.97;;
7158;SDS011;63175;52.374;13.132;2023-02-17T03:04:06;24.47;;;16.93;;
7158;SDS011;63175;52.374;13.132;2023-02-17T03:06:40;30.40;;;19.40;;
7158;SDS011;63175;52.374;13.132;2023-02-17T03:09:14;26.30;;;17.77;;
7158;SDS011;63175;52.374;13.132;2023-02-17T03:11:44;26.83;;;16.17;;
7158;SDS011;63175;52.374;13.132;2023-02-17T03:14:13;30.87;;;20.13;;
7158;SDS011;63175;52.374;13.132;2023-02-17T03:16:41;25.00;;;17.80;;
7158;SDS011;63175;52.374;13.132;2023-02-17T03:19:10;24.47;;;18.23;;
7158;SDS011;63175;52.374;13.132;2023-02-17T03:21:38;30.23;;;19.90;;
7158;SDS011;63175;52.374;13.132;2023-02-17T03:24:08;23.70;;;18.27;;
7158;SDS011;63175;52.374;13.132;2023-02-17T03:26:35;24.93;;;18.43;;
7158;SDS011;63175;52.374;13.132;2023-02-17T03:29:02;27.53;;;18.73;;
7158;SDS011;63175;52.374;13.132;2023-02-17T03:31:29;27.87;;;18.97;;
7158;SDS011;63175;52.374;13.132;2023-02-17T03:33:56;28.00;;;20.00;;
7158;SDS011;63175;52.374;13.132;2023-02-17T03:36:24;26.30;;;18.83;;
7158;SDS011;63175;52.374;13.132;2023-02-17T03:38:51;27.90;;;18.80;;
7158;SDS011;63175;52.374;13.132;2023-02-17T03:41:18;29.43;;;18.20;;
7158;SDS011;63175;52.374;13.132;2023-02-17T03:43:45;27.07;;;16.87;;
7158;SDS011;63175;52.374;13.132;2023-02-17T03:46:12;24.97;;;17.73;;
7158;SDS011;63175;52.374;13.132;2023-02-17T03:48:40;23.63;;;18.50;;
7158;SDS011;63175;52.374;13.132;2023-02-17T03:51:11;23.50;;;18.07;;
7158;SDS011;63175;52.374;13.132;2023-02-17T03:53:41;25.37;;;18.87;;
7158;SDS011;63175;52.374;13.132;2023-02-17T03:56:09;25.90;;;18.60;;
7158;SDS011;63175;52.374;13.132;2023-02-17T03:58:36;25.70;;;18.43;;
7158;SDS011;63175;52.374;13.132;2023-02-17T04:01:03;24.53;;;19.03;;
7158;SDS011;63175;52.374;13.132;2023-02-17T04:03:30;25.93;;;18.53;;
7158;SDS011;63175;52.374;13.132;2023-02-17T04:05:57;24.20;;;18.23;;
7158;SDS011;63175;52.374;13.132;2023-02-17T04:08:24;26.60;;;18.07;;
7158;SDS011;63175;52.374;13.132;2023-02-17T04:10:53;27.40;;;19.53;;
7158;SDS011;63175;52.374;13.132;2023-02-17T04:13:20;27.10;;;18.80;;
7158;SDS011;63175;52.374;13.132;2023-02-17T04:15:47;21.40;;;16.30;;
7158;SDS011;63175;52.374;13.132;2023-02-17T04:18:15;21.37;;;15.60;;
7158;SDS011;63175;52.374;13.132;2023-02-17T04:20:42;20.27;;;16.83;;
7158;SDS011;63175;52.374;13.132;2023-02-17T04:23:10;26.57;;;17.30;;
7158;SDS011;63175;52.374;13.132;2023-02-17T04:25:38;24.17;;;17.67;;
7158;SDS011;63175;52.374;13.132;2023-02-17T04:28:07;22.10;;;16.67;;
7158;SDS011;63175;52.374;13.132;2023-02-17T04:30:34;20.70;;;17.40;;
7158;SDS011;63175;52.374;13.132;2023-02-17T04:33:01;24.60;;;16.83;;
7158;SDS011;63175;52.374;13.132;2023-02-17T04:35:29;23.60;;;18.00;;
7158;SDS011;63175;52.374;13.132;2023-02-17T04:37:56;20.57;;;16.87;;
7158;SDS011;63175;52.374;13.132;2023-02-17T04:40:23;22.23;;;16.97;;
7158;SDS011;63175;52.374;13.132;2023-02-17T04:42:50;23.00;;;17.07;;
7158;SDS011;63175;52.374;13.132;2023-02-17T04:45:18;26.37;;;18.37;;
7158;SDS011;63175;52.374;13.132;2023-02-17T04:47:45;24.17;;;18.27;;
7158;SDS011;63175;52.374;13.132;2023-02-17T04:50:12;22.57;;;15.70;;
7158;SDS011;63175;52.374;13.132;2023-02-17T04:52:40;21.53;;;16.57;;
7158;SDS011;63175;52.374;13.132;2023-02-17T04:55:07;21.80;;;16.43;;
7158;SDS011;63175;52.374;13.132;2023-02-17T04:57:34;21.40;;;16.37;;
7158;SDS011;63175;52.374;13.132;2023-02-17T05:00:02;26.90;;;18.77;;
7158;SDS011;63175;52.374;13.132;2023-02-17T05:02:31;25.97;;;17.77;;
7158;SDS011;63175;52.374;13.132;2023-02-17T05:04:58;28.37;;;19.47;;
7158;SDS011;63175;52.374;13.132;2023-02-17T05:07:25;30.93;;;18.63;;
7158;SDS011;63175;52.374;13.132;2023-02-17T05:09:51;25.90;;;19.20;;
7158;SDS011;63175;52.374;13.132;2023-02-17T05:12:19;28.07;;;18.43;;
7158;SDS011;63175;52.374;13.132;2023-02-17T05:14:45;22.93;;;17.30;;
7158;SDS011;63175;52.374;13.132;2023-02-17T05:17:12;22.97;;;17.00;;
7158;SDS011;63175;52.374;13.132;2023-02-17T05:19:40;23.60;;;16.97;;
7158;SDS011;63175;52.374;13.132;2023-02-17T05:22:07;22.13;;;17.10;;
7158;SDS011;63175;52.374;13.132;2023-02-17T05:24:35;23.93;;;17.17;;
7158;SDS011;63175;52.374;13.132;2023-02-17T05:27:02;22.80;;;16.33;;
7158;SDS011;63175;52.374;13.132;2023-02-17T05:29:29;20.43;;;15.83;;
7158;SDS011;63175;52.374;13.132;2023-02-17T05:31:56;20.67;;;14.93;;
7158;SDS011;63175;52.374;13.132;2023-02-17T05:34:23;20.50;;;15.60;;
7158;SDS011;63175;52.374;13.132;2023-02-17T05:36:51;23.37;;;17.23;;
7158;SDS011;63175;52.374;13.132;2023-02-17T05:39:18;28.90;;;16.83;;
7158;SDS011;63175;52.374;13.132;2023-02-17T05:41:45;21.47;;;16.07;;
7158;SDS011;63175;52.374;13.132;2023-02-17T05:44:11;19.77;;;16.30;;
7158;SDS011;63175;52.374;13.132;2023-02-17T05:46:38;20.37;;;15.20;;
7158;SDS011;63175;52.374;13.132;2023-02-17T05:49:05;21.60;;;15.83;;
7158;SDS011;63175;52.374;13.132;2023-02-17T05:51:32;18.73;;;14.93;;
7158;SDS011;63175;52.374;13.132;2023-02-17T05:54:00;23.17;;;16.33;;
7158;SDS011;63175;52.374;13.132;2023-02-17T05:56:27;17.03;;;14.63;;
7158;SDS011;63175;52.374;13.132;2023-02-17T05:58:54;17.83;;;13.90;;
7158;SDS011;63175;52.374;13.132;2023-02-17T06:01:21;15.77;;;13.70;;
7158;SDS011;63175;52.374;13.132;2023-02-17T06:03:48;19.47;;;14.70;;
7158;SDS011;63175;52.374;13.132;2023-02-17T06:06:14;20.03;;;14.40;;
7158;SDS011;63175;52.374;13.132;2023-02-17T06:08:41;15.70;;;13.43;;
7158;SDS011;63175;52.374;13.132;2023-02-17T06:11:09;19.90;;;14.03;;
7158;SDS011;63175;52.374;13.132;2023-02-17T06:13:36;19.40;;;14.60;;
7158;SDS011;63175;52.374;13.132;2023-02-17T06:16:03;18.47;;;14.00;;
7158;SDS011;63175;52.374;13.132;2023-02-17T06:18:31;20.77;;;14.80;;
7158;SDS011;63175;52.374;13.132;2023-02-17T06:20:58;15.90;;;13.23;;
7158;SDS011;63175;52.374;13.132;2023-02-17T06:23:25;18.23;;;13.17;;
7158;SDS011;63175;52.374;13.132;2023-02-17T06:25:52;21.23;;;15.00;;
7158;SDS011;63175;52.374;13.132;2023-02-17T06:28:20;15.70;;;13.73;;
7158;SDS011;63175;52.374;13.132;2023-02-17T06:30:47;17.67;;;13.00;;
7158;SDS011;63175;52.374;13.132;2023-02-17T06:33:14;14.97;;;12.60;;
7158;SDS011;63175;52.374;13.132;2023-02-17T06:35:41;16.30;;;13.03;;
7158;SDS011;63175;52.374;13.132;2023-02-17T06:38:08;16.90;;;13.57;;
7158;SDS011;63175;52.374;13.132;2023-02-17T06:40:35;16.53;;;12.93;;
7158;SDS011;63175;52.374;13.132;2023-02-17T06:43:02;14.70;;;11.93;;
7158;SDS011;63175;52.374;13.132;2023-02-17T06:45:32;14.10;;;11.90;;
7158;SDS011;63175;52.374;13.132;2023-02-17T06:47:59;13.77;;;12.13;;
7158;SDS011;63175;52.374;13.132;2023-02-17T06:50:26;14.00;;;11.17;;
7158;SDS011;63175;52.374;13.132;2023-02-17T06:52:53;13.10;;;11.70;;
7158;SDS011;63175;52.374;13.132;2023-02-17T06:55:20;17.00;;;13.10;;
7158;SDS011;63175;52.374;13.132;2023-02-17T06:57:46;16.17;;;13.10;;
7158;SDS011;63175;52.374;13.132;2023-02-17T07:00:13;15.17;;;12.13;;
7158;SDS011;63175;52.374;13.132;2023-02-17T07:02:42;14.50;;;11.87;;
7158;SDS011;63175;52.374;13.132;2023-02-17T07:05:09;14.90;;;10.73;;
7158;SDS011;63175;52.374;13.132;2023-02-17T07:07:36;13.37;;;10.90;;
7158;SDS011;63175;52.374;13.132;2023-02-17T07:10:03;14.47;;;11.60;;
7158;SDS011;63175;52.374;13.132;2023-02-17T07:12:30;14.30;;;11.43;;
7158;SDS011;63175;52.374;13.132;2023-02-17T07:14:57;15.03;;;11.83;;
7158;SDS011;63175;52.374;13.132;2023-02-17T07:17:24;11.80;;;10.43;;
7158;SDS011;63175;52.374;13.132;2023-02-17T07:19:52;14.93;;;11.10;;
7158;SDS011;63175;52.374;13.132;2023-02-17T07:22:19;12.73;;;11.13;;
7158;SDS011;63175;52.374;13.132;2023-02-17T07:24:46;14.13;;;11.30;;
7158;SDS011;63175;52.374;13.132;2023-02-17T07:27:13;15.60;;;12.70;;
7158;SDS011;63175;52.374;13.132;2023-02-17T07:29:39;13.43;;;11.00;;
7158;SDS011;63175;52.374;13.132;2023-02-17T07:32:06;12.83;;;10.50;;
7158;SDS011;63175;52.374;13.132;2023-02-17T07:34:33;14.13;;;10.40;;
7158;SDS011;63175;52.374;13.132;2023-02-17T07:37:01;11.40;;;10.30;;
7158;SDS011;63175;52.374;13.132;2023-02-17T07:39:28;12.03;;;10.70;;
7158;SDS011;63175;52.374;13.132;2023-02-17T07:41:55;13.90;;;10.87;;
7158;SDS011;63175;52.374;13.132;2023-02-17T07:44:24;13.70;;;12.23;;
7158;SDS011;63175;52.374;13.132;2023-02-17T07:46:51;12.37;;;11.07;;
7158;SDS011;63175;52.374;13.132;2023-02-17T07:49:18;13.73;;;10.60;;
7158;SDS011;63175;52.374;13.132;2023-02-17T07:51:45;14.10;;;11.57;;
7158;SDS011;63175;52.374;13.132;2023-02-17T07:54:13;12.07;;;10.77;;
7158;SDS011;63175;52.374;13.132;2023-02-17T07:56:41;14.83;;;11.37;;
7158;SDS011;63175;52.374;13.132;2023-02-17T07:59:08;13.60;;;11.60;;
7158;SDS011;63175;52.374;13.132;2023-02-17T08:01:35;13.87;;;12.37;;
7158;SDS011;63175;52.374;13.132;2023-02-17T08:04:02;11.33;;;10.13;;
7158;SDS011;63175;52.374;13.132;2023-02-17T08:06:29;14.20;;;11.63;;
7158;SDS011;63175;52.374;13.132;2023-02-17T08:08:56;13.53;;;11.00;;
7158;SDS011;63175;52.374;13.132;2023-02-17T08:11:42;12.37;;;10.77;;
7158;SDS011;63175;52.374;13.132;2023-02-17T08:14:28;11.07;;;10.00;;
7158;SDS011;63175;52.374;13.132;2023-02-17T08:16:56;10.63;;;9.13;;
7158;SDS011;63175;52.374;13.132;2023-02-17T08:19:23;11.97;;;10.30;;
7158;SDS011;63175;52.374;13.132;2023-02-17T08:21:51;10.97;;;9.87;;
7158;SDS011;63175;52.374;13.132;2023-02-17T08:24:18;11.37;;;10.07;;
7158;SDS011;63175;52.374;13.132;2023-02-17T08:26:46;12.00;;;10.20;;
7158;SDS011;63175;52.374;13.132;2023-02-17T08:29:14;11.37;;;9.70;;
7158;SDS011;63175;52.374;13.132;2023-02-17T08:31:40;10.70;;;9.43;;
7158;SDS011;63175;52.374;13.132;2023-02-17T08:34:09;11.77;;;10.40;;
7158;SDS011;63175;52.374;13.132;2023-02-17T08:36:37;11.47;;;10.27;;
7158;SDS011;63175;52.374;13.132;2023-02-17T08:39:04;12.50;;;10.50;;
7158;SDS011;63175;52.374;13.132;2023-02-17T08:41:38;10.87;;;9.30;;
7158;SDS011;63175;52.374;13.132;2023-02-17T08:44:08;15.63;;;10.03;;
7158;SDS011;63175;52.374;13.132;2023-02-17T08:46:36;13.00;;;10.80;;
7158;SDS011;63175;52.374;13.132;2023-02-17T08:49:02;13.10;;;11.50;;
7158;SDS011;63175;52.374;13.132;2023-02-17T08:51:30;12.90;;;10.40;;
7158;SDS011;63175;52.374;13.132;2023-02-17T08:53:57;11.00;;;9.90;;
7158;SDS011;63175;52.374;13.132;2023-02-17T08:56:25;9.60;;;8.63;;
7158;SDS011;63175;52.374;13.132;2023-02-17T08:58:53;11.00;;;9.50;;
7158;SDS011;63175;52.374;13.132;2023-02-17T09:01:22;10.10;;;9.10;;
7158;SDS011;63175;52.374;13.132;2023-02-17T09:03:50;13.77;;;10.60;;
7158;SDS011;63175;52.374;13.132;2023-02-17T09:06:19;10.30;;;9.30;;
7158;SDS011;63175;52.374;13.132;2023-02-17T09:08:46;8.83;;;8.03;;
7158;SDS011;63175;52.374;13.132;2023-02-17T09:11:13;14.30;;;10.80;;
7158;SDS011;63175;52.374;13.132;2023-02-17T09:13:41;10.60;;;9.60;;
7158;SDS011;63175;52.374;13.132;2023-02-17T09:16:08;11.03;;;9.93;;
7158;SDS011;63175;52.374;13.132;2023-02-17T09:18:37;10.20;;;9.20;;
7158;SDS011;63175;52.374;13.132;2023-02-17T09:21:04;9.93;;;9.00;;
7158;SDS011;63175;52.374;13.132;2023-02-17T09:23:32;13.50;;;10.30;;
7158;SDS011;63175;52.374;13.132;2023-02-17T09:26:00;13.93;;;10.97;;
7158;SDS011;63175;52.374;13.132;2023-02-17T09:28:29;12.27;;;11.07;;
7158;SDS011;63175;52.374;13.132;2023-02-17T09:30:56;11.97;;;10.77;;
7158;SDS011;63175;52.374;13.132;2023-02-17T09:33:23;11.63;;;10.50;;
7158;SDS011;63175;52.374;13.132;2023-02-17T09:35:51;11.87;;;10.67;;
7158;SDS011;63175;52.374;13.132;2023-02-17T09:38:18;14.80;;;11.17;;
7158;SDS011;63175;52.374;13.132;2023-02-17T09:40:45;15.60;;;11.57;;
7158;SDS011;63175;52.374;13.132;2023-02-17T09:43:14;15.97;;;12.20;;
7158;SDS011;63175;52.374;13.132;2023-02-17T09:45:45;15.30;;;12.23;;
7158;SDS011;63175;52.374;13.132;2023-02-17T09:48:16;12.87;;;11.07;;
7158;SDS011;63175;52.374;13.132;2023-02-17T09:50:47;12.07;;;10.53;;
7158;SDS011;63175;52.374;13.132;2023-02-17T09:53:21;13.47;;;10.90;;
7158;SDS011;63175;52.374;13.132;2023-02-17T09:55:53;12.17;;;10.97;;
7158;SDS011;63175;52.374;13.132;2023-02-17T09:58:23;15.90;;;10.87;;
7158;SDS011;63175;52.374;13.132;2023-02-17T10:00:52;13.37;;;10.73;;
7158;SDS011;63175;52.374;13.132;2023-02-17T10:03:23;11.57;;;10.40;;
7158;SDS011;63175;52.374;13.132;2023-02-17T10:05:58;12.27;;;10.63;;
7158;SDS011;63175;52.374;13.132;2023-02-17T10:08:34;12.30;;;11.10;;
7158;SDS011;63175;52.374;13.132;2023-02-17T10:11:07;12.70;;;11.30;;
7158;SDS011;63175;52.374;13.132;2023-02-17T10:13:41;12.10;;;10.90;;
7158;SDS011;63175;52.374;13.132;2023-02-17T10:16:13;12.43;;;10.53;;
7158;SDS011;63175;52.374;13.132;2023-02-17T10:18:46;13.00;;;11.00;;
7158;SDS011;63175;52.374;13.132;2023-02-17T10:21:20;13.10;;;11.43;;
7158;SDS011;63175;52.374;13.132;2023-02-17T10:23:52;13.00;;;11.57;;
7158;SDS011;63175;52.374;13.132;2023-02-17T10:26:21;11.63;;;10.60;;
7158;SDS011;63175;52.374;13.132;2023-02-17T10:28:55;11.07;;;10.00;;
7158;SDS011;63175;52.374;13.132;2023-02-17T10:31:27;12.23;;;10.67;;
7158;SDS011;63175;52.374;13.132;2023-02-17T10:34:09;13.07;;;10.37;;
7158;SDS011;63175;52.374;13.132;2023-02-17T10:36:43;12.00;;;10.67;;
7158;SDS011;63175;52.374;13.132;2023-02-17T10:39:23;13.70;;;11.10;;
7158;SDS011;63175;52.374;13.132;2023-02-17T10:42:03;12.77;;;10.10;;
7158;SDS011;63175;52.374;13.132;2023-02-17T10:44:32;13.67;;;12.20;;
7158;SDS011;63175;52.374;13.132;2023-02-17T10:47:02;12.23;;;11.00;;
7158;SDS011;63175;52.374;13.132;2023-02-17T10:49:30;12.93;;;11.63;;
7158;SDS011;63175;52.374;13.132;2023-02-17T10:52:01;10.47;;;9.47;;
7158;SDS011;63175;52.374;13.132;2023-02-17T10:54:36;11.73;;;10.43;;
7158;SDS011;63175;52.374;13.132;2023-02-17T10:57:07;13.00;;;10.70;;
7158;SDS011;63175;52.374;13.132;2023-02-17T10:59:38;11.33;;;10.20;;
7158;SDS011;63175;52.374;13.132;2023-02-17T11:02:12;15.70;;;9.83;;
7158;SDS011;63175;52.374;13.132;2023-02-17T11:04:45;12.03;;;9.90;;
7158;SDS011;63175;52.374;13.132;2023-02-17T11:07:17;11.10;;;10.00;;
7158;SDS011;63175;52.374;13.132;2023-02-17T11:09:48;11.53;;;9.23;;
7158;SDS011;63175;52.374;13.132;2023-02-17T11:12:19;13.40;;;9.67;;
7158;SDS011;63175;52.374;13.132;2023-02-17T11:14:51;10.30;;;9.30;;
7158;SDS011;63175;52.374;13.132;2023-02-17T11:17:21;10.73;;;9.73;;
7158;SDS011;63175;52.374;13.132;2023-02-17T11:19:53;10.13;;;9.13;;
7158;SDS011;63175;52.374;13.132;2023-02-17T11:22:28;9.90;;;8.90;;
7158;SDS011;63175;52.374;13.132;2023-02-17T11:24:59;11.40;;;8.80;;
7158;SDS011;63175;52.374;13.132;2023-02-17T11:27:28;11.33;;;9.10;;
7158;SDS011;63175;52.374;13.132;2023-02-17T11:30:03;10.47;;;8.70;;
7158;SDS011;63175;52.374;13.132;2023-02-17T11:32:32;9.47;;;8.53;;
7158;SDS011;63175;52.374;13.132;2023-02-17T11:35:00;11.10;;;8.43;;
7158;SDS011;63175;52.374;13.132;2023-02-17T11:37:31;9.23;;;8.20;;
7158;SDS011;63175;52.374;13.132;2023-02-17T11:40:15;8.90;;;8.00;;
7158;SDS011;63175;52.374;13.132;2023-02-17T11:42:54;7.60;;;6.90;;
7158;SDS011;63175;52.374;13.132;2023-02-17T11:45:22;7.67;;;6.90;;
7158;SDS011;63175;52.374;13.132;2023-02-17T11:47:52;12.27;;;8.33;;
7158;SDS011;63175;52.374;13.132;2023-02-17T11:50:25;8.13;;;7.33;;
7158;SDS011;63175;52.374;13.132;2023-02-17T11:53:04;7.57;;;6.80;;
7158;SDS011;63175;52.374;13.132;2023-02-17T11:55:46;7.00;;;6.30;;
7158;SDS011;63175;52.374;13.132;2023-02-17T11:58:22;7.17;;;6.57;;
7158;SDS011;63175;52.374;13.132;2023-02-17T12:01:00;7.07;;;6.47;;
7158;SDS011;63175;52.374;13.132;2023-02-17T12:06:28;7.73;;;6.73;;
7158;SDS011;63175;52.374;13.132;2023-02-17T12:09:05;8.73;;;7.50;;
7158;SDS011;63175;52.374;13.132;2023-02-17T12:11:39;7.43;;;5.63;;
7158;SDS011;63175;52.374;13.132;2023-02-17T12:14:18;8.03;;;7.27;;
7158;SDS011;63175;52.374;13.132;2023-02-17T12:17:00;7.27;;;6.70;;
7158;SDS011;63175;52.374;13.132;2023-02-17T12:19:39;7.20;;;6.53;;
7158;SDS011;63175;52.374;13.132;2023-02-17T12:22:14;6.30;;;5.80;;
7158;SDS011;63175;52.374;13.132;2023-02-17T12:25:00;6.20;;;5.70;;
7158;SDS011;63175;52.374;13.132;2023-02-17T12:27:47;6.10;;;5.50;;
7158;SDS011;63175;52.374;13.132;2023-02-17T12:30:26;7.53;;;5.97;;
7158;SDS011;63175;52.374;13.132;2023-02-17T12:36:02;5.53;;;5.03;;
7158;SDS011;63175;52.374;13.132;2023-02-17T12:38:33;5.43;;;5.03;;
7158;SDS011;63175;52.374;13.132;2023-02-17T12:41:06;5.53;;;5.00;;
7158;SDS011;63175;52.374;13.132;2023-02-17T12:43:38;5.70;;;5.20;;
7158;SDS011;63175;52.374;13.132;2023-02-17T12:46:10;7.90;;;4.73;;
7158;SDS011;63175;52.374;13.132;2023-02-17T12:48:41;5.90;;;4.77;;
7158;SDS011;63175;52.374;13.132;2023-02-17T12:51:16;5.40;;;4.90;;
7158;SDS011;63175;52.374;13.132;2023-02-17T12:53:48;5.70;;;5.07;;
7158;SDS011;63175;52.374;13.132;2023-02-17T12:56:26;8.83;;;5.00;;
7158;SDS011;63175;52.374;13.132;2023-02-17T12:59:25;4.93;;;4.53;;
7158;SDS011;63175;52.374;13.132;2023-02-17T13:01:58;3.93;;;3.63;;
7158;SDS011;63175;52.374;13.132;2023-02-17T13:04:26;4.93;;;4.30;;
7158;SDS011;63175;52.374;13.132;2023-02-17T13:06:58;4.63;;;4.23;;
7158;SDS011;63175;52.374;13.132;2023-02-17T13:09:35;4.60;;;4.20;;
7158;SDS011;63175;52.374;13.132;2023-02-17T13:12:17;4.00;;;3.70;;
7158;SDS011;63175;52.374;13.132;2023-02-17T13:14:57;5.07;;;4.30;;
7158;SDS011;63175;52.374;13.132;2023-02-17T13:17:25;5.50;;;4.03;;
7158;SDS011;63175;52.374;13.132;2023-02-17T13:23:01;3.93;;;3.63;;
7158;SDS011;63175;52.374;13.132;2023-02-17T13:25:31;3.63;;;3.33;;
7158;SDS011;63175;52.374;13.132;2023-02-17T13:28:01;3.27;;;3.07;;
7158;SDS011;63175;52.374;13.132;2023-02-17T13:30:41;3.40;;;3.20;;
7158;SDS011;63175;52.374;13.132;2023-02-17T13:33:14;3.10;;;2.90;;
7158;SDS011;63175;52.374;13.132;2023-02-17T13:35:53;4.27;;;2.70;;
7158;SDS011;63175;52.374;13.132;2023-02-17T13:38:27;3.20;;;2.97;;
7158;SDS011;63175;52.374;13.132;2023-02-17T13:40:56;3.57;;;3.27;;
7158;SDS011;63175;52.374;13.132;2023-02-17T13:43:26;3.10;;;2.90;;
7158;SDS011;63175;52.374;13.132;2023-02-17T13:45:56;2.90;;;2.70;;
7158;SDS011;63175;52.374;13.132;2023-02-17T13:48:25;2.80;;;2.60;;
7158;SDS011;63175;52.374;13.132;2023-02-17T13:50:54;2.90;;;2.30;;
7158;SDS011;63175;52.374;13.132;2023-02-17T13:53:23;3.47;;;3.07;;
7158;SDS011;63175;52.374;13.132;2023-02-17T13:55:53;2.27;;;2.10;;
7158;SDS011;63175;52.374;13.132;2023-02-17T13:58:21;2.60;;;1.80;;
7158;SDS011;63175;52.374;13.132;2023-02-17T14:00:54;2.37;;;2.27;;
7158;SDS011;63175;52.374;13.132;2023-02-17T14:03:23;2.40;;;2.20;;
7158;SDS011;63175;52.374;13.132;2023-02-17T14:05:51;3.23;;;2.10;;
7158;SDS011;63175;52.374;13.132;2023-02-17T14:08:22;2.50;;;2.40;;
7158;SDS011;63175;52.374;13.132;2023-02-17T14:10:54;2.57;;;2.37;;
7158;SDS011;63175;52.374;13.132;2023-02-17T14:13:22;2.10;;;2.00;;
7158;SDS011;63175;52.374;13.132;2023-02-17T14:15:52;2.27;;;2.17;;
7158;SDS011;63175;52.374;13.132;2023-02-17T14:18:26;2.57;;;2.37;;
7158;SDS011;63175;52.374;13.132;2023-02-17T14:20:59;2.10;;;2.00;;
7158;SDS011;63175;52.374;13.132;2023-02-17T14:23:44;2.47;;;2.27;;
7158;SDS011;63175;52.374;13.132;2023-02-17T14:26:14;1.60;;;1.50;;
7158;SDS011;63175;52.374;13.132;2023-02-17T14:28:52;1.67;;;1.50;;
7158;SDS011;63175;52.374;13.132;2023-02-17T14:31:22;2.27;;;2.10;;
7158;SDS011;63175;52.374;13.132;2023-02-17T14:33:53;2.17;;;2.07;;
7158;SDS011;63175;52.374;13.132;2023-02-17T14:36:25;5.53;;;2.20;;
7158;SDS011;63175;52.374;13.132;2023-02-17T14:38:54;1.97;;;1.87;;
7158;SDS011;63175;52.374;13.132;2023-02-17T14:41:23;2.60;;;2.40;;
7158;SDS011;63175;52.374;13.132;2023-02-17T14:43:50;2.93;;;2.73;;
7158;SDS011;63175;52.374;13.132;2023-02-17T14:46:17;3.30;;;3.10;;
7158;SDS011;63175;52.374;13.132;2023-02-17T14:48:46;4.50;;;3.57;;
7158;SDS011;63175;52.374;13.132;2023-02-17T14:51:14;3.63;;;3.43;;
7158;SDS011;63175;52.374;13.132;2023-02-17T14:53:43;4.73;;;3.73;;
7158;SDS011;63175;52.374;13.132;2023-02-17T14:56:12;4.07;;;3.77;;
7158;SDS011;63175;52.374;13.132;2023-02-17T14:58:44;5.03;;;3.87;;